Time;durP1;ratioP1;P1;durP2;ratioP2;P2;SDS_P1;SDS_P2;PMS_P1;PMS_P2;Temp;Humidity;BMP_temperature;BMP_pressure;BME280_temperature;BME280_humidity;BME280_pressure;Samples;Min_cycle;Max_cycle;Signal;HPM_P1;HPM_P2
2021/01/23 00:01:59;;;;;;;13.88;5.72;;;;;;;-0.14;57.24;99574.53;5037562;28;20029;-68
2021/01/23 00:04:25;;;;;;;25.05;6.78;;;;;;;0.18;55.93;99570.56;5039373;28;20037;-67
2021/01/23 00:06:50;;;;;;;12.00;5.28;;;;;;;-0.27;57.51;99578.19;5023706;28;20132;-68
2021/01/23 00:09:16;;;;;;;13.65;6.25;;;;;;;-0.29;57.66;99579.94;5041386;28;20398;-70
2021/01/23 00:11:41;;;;;;;13.13;5.85;;;;;;;0.03;55.95;99583.69;5034686;28;20052;-68
2021/01/23 00:14:07;;;;;;;11.60;5.80;;;;;;;-0.00;56.53;99576.03;5039565;28;20097;-68
2021/01/23 00:16:32;;;;;;;13.13;5.20;;;;;;;-0.29;57.48;99579.09;5040868;28;20040;-68
2021/01/23 00:18:58;;;;;;;17.75;6.20;;;;;;;0.04;56.48;99580.25;5036173;28;20445;-69
2021/01/23 00:21:23;;;;;;;18.60;6.72;;;;;;;-0.12;56.89;99577.09;5024459;28;20814;-69
2021/01/23 00:23:49;;;;;;;18.05;6.50;;;;;;;-0.02;56.67;99588.06;5025425;28;20029;-69
2021/01/23 00:26:14;;;;;;;15.27;6.03;;;;;;;0.08;56.23;99581.91;5026445;28;20043;-68
2021/01/23 00:28:40;;;;;;;16.00;7.25;;;;;;;-0.10;56.60;99580.50;5037292;28;20041;-68
2021/01/23 00:31:05;;;;;;;13.18;6.68;;;;;;;0.04;56.11;99577.69;5039024;28;20482;-68
2021/01/23 00:33:31;;;;;;;20.15;6.93;;;;;;;-0.08;56.28;99562.47;5018817;28;20043;-69
2021/01/23 00:35:56;;;;;;;16.80;6.40;;;;;;;-0.27;56.88;99565.34;5023779;28;20045;-68
2021/01/23 00:38:22;;;;;;;17.80;6.65;;;;;;;-0.22;56.81;99563.53;5016699;28;20045;-69
2021/01/23 00:40:48;;;;;;;14.50;6.25;;;;;;;0.07;55.75;99552.75;5037143;28;20551;-68
2021/01/23 00:43:13;;;;;;;15.77;6.72;;;;;;;-0.05;56.01;99560.69;5038717;28;20064;-68
2021/01/23 00:45:38;;;;;;;11.38;6.40;;;;;;;-0.00;55.74;99550.34;5021318;28;20490;-68
2021/01/23 00:48:11;;;;;;;9.30;6.18;;;;;;;0.16;55.04;99550.91;5035623;28;20064;-68
2021/01/23 00:50:37;;;;;;;19.00;6.55;;;;;;;-0.07;56.05;99549.59;5021231;28;20029;-69
2021/01/23 00:53:03;;;;;;;12.95;6.22;;;;;;;-0.14;56.31;99548.88;5036757;28;20040;-69
2021/01/23 00:55:29;;;;;;;15.10;5.85;;;;;;;-0.14;56.56;99545.44;5038022;28;20120;-69
2021/01/23 00:57:55;;;;;;;18.23;8.10;;;;;;;-0.22;57.04;99550.69;5021403;28;20738;-68
2021/01/23 01:00:21;;;;;;;23.90;8.18;;;;;;;-0.51;58.00;99552.91;5038316;28;20029;-68
2021/01/23 01:02:47;;;;;;;16.40;6.38;;;;;;;-0.20;56.93;99554.09;5023601;28;20033;-68
2021/01/23 01:05:24;;;;;;;13.93;6.35;;;;;;;0.08;56.03;99538.22;5021807;28;20457;-69
2021/01/23 01:07:49;;;;;;;15.63;6.57;;;;;;;-0.05;56.48;99536.75;5023755;28;20657;-67
2021/01/23 01:10:15;;;;;;;14.65;7.65;;;;;;;-0.09;56.46;99547.94;5023002;28;20059;-67
2021/01/23 01:12:40;;;;;;;16.67;6.47;;;;;;;-0.18;56.46;99542.06;5005292;28;20041;-69
2021/01/23 01:15:07;;;;;;;21.55;6.53;;;;;;;-0.36;57.00;99550.94;5019000;28;20622;-68
2021/01/23 01:17:32;;;;;;;19.52;7.57;;;;;;;-0.19;56.83;99550.66;5036863;28;20044;-70
2021/01/23 01:19:58;;;;;;;21.25;7.50;;;;;;;0.10;55.57;99546.75;5035841;28;20040;-68
2021/01/23 01:22:23;;;;;;;12.90;6.10;;;;;;;0.15;55.18;99547.50;5029062;28;20033;-69
2021/01/23 01:24:49;;;;;;;17.70;6.95;;;;;;;0.12;55.29;99546.69;5021971;28;20442;-69
2021/01/23 01:27:14;;;;;;;13.00;6.72;;;;;;;0.20;55.02;99547.41;5038745;28;20029;-67
2021/01/23 01:29:40;;;;;;;15.98;7.13;;;;;;;0.11;55.36;99553.56;5035956;28;20128;-68
2021/01/23 01:32:06;;;;;;;20.23;7.00;;;;;;;0.23;54.82;99550.78;5035322;28;20394;-68
2021/01/23 01:34:32;;;;;;;16.77;6.70;;;;;;;0.19;54.78;99549.16;5016767;28;20052;-70
2021/01/23 01:36:57;;;;;;;16.63;7.38;;;;;;;0.16;54.94;99546.63;5037486;28;20025;-69
2021/01/23 01:39:23;;;;;;;15.57;6.63;;;;;;;0.13;54.91;99538.97;5036153;28;20538;-69
2021/01/23 01:41:48;;;;;;;13.57;6.43;;;;;;;0.13;54.81;99541.53;5017315;28;20060;-68
2021/01/23 01:44:14;;;;;;;12.02;6.55;;;;;;;0.07;54.81;99546.78;5026715;28;20029;-68
2021/01/23 01:46:40;;;;;;;16.20;6.82;;;;;;;0.05;55.11;99554.53;5037186;28;20120;-70
2021/01/23 01:49:07;;;;;;;15.25;7.22;;;;;;;0.05;55.30;99558.81;5008361;28;20029;-69
2021/01/23 01:51:34;;;;;;;21.33;7.78;;;;;;;0.03;55.25;99560.56;5016590;28;20033;-68
2021/01/23 01:54:00;;;;;;;13.90;6.70;;;;;;;0.01;55.19;99563.19;5042458;28;20570;-68
2021/01/23 01:56:26;;;;;;;17.65;7.47;;;;;;;0.10;55.19;99551.03;5040711;28;20076;-70
2021/01/23 01:58:51;;;;;;;17.77;7.70;;;;;;;-0.00;55.11;99555.47;5038001;28;20104;-69
2021/01/23 02:01:18;;;;;;;15.75;7.85;;;;;;;0.10;55.04;99548.44;5040841;28;20036;-68
2021/01/23 02:03:59;;;;;;;21.55;8.43;;;;;;;0.05;54.99;99546.84;5022690;28;22333;-69
2021/01/23 02:06:36;;;;;;;11.65;6.47;;;;;;;0.06;54.90;99551.09;5029106;28;20041;-69
2021/01/23 02:09:17;;;;;;;22.48;7.10;;;;;;;0.01;54.84;99549.47;5042815;28;20044;-70
2021/01/23 02:12:26;;;;;;;17.58;9.02;;;;;;;0.06;55.18;99551.09;5041220;28;20561;-69
2021/01/23 02:15:00;;;;;;;19.42;9.25;;;;;;;-0.01;55.33;99546.94;4991847;28;20507;-69
2021/01/23 02:17:36;;;;;;;26.90;9.10;;;;;;;0.01;55.24;99545.19;5012939;28;20493;-68
2021/01/23 02:20:37;;;;;;;21.50;10.48;;;;;;;-0.15;55.96;99543.75;5040017;28;20597;-69
2021/01/23 02:23:28;;;;;;;23.45;8.30;;;;;;;-0.03;55.64;99542.72;5041819;28;20119;-69
2021/01/23 02:26:15;;;;;;;16.13;7.60;;;;;;;0.08;55.20;99543.34;5036465;28;20045;-69
2021/01/23 02:29:10;;;;;;;22.92;9.20;;;;;;;0.13;54.90;99551.81;5007505;28;20048;-68
2021/01/23 02:31:41;;;;;;;18.63;8.88;;;;;;;0.03;55.26;99540.00;5011989;28;20128;-67
2021/01/23 02:34:10;;;;;;;21.80;9.05;;;;;;;-0.06;55.47;99540.16;5007949;28;20079;-69
2021/01/23 02:36:39;;;;;;;28.98;11.18;;;;;;;-0.18;55.98;99542.06;5029126;28;20039;-67
2021/01/23 02:39:05;;;;;;;25.25;10.50;;;;;;;-0.00;55.53;99545.22;5037330;28;20414;-69
2021/01/23 02:41:31;;;;;;;20.15;11.07;;;;;;;0.15;55.13;99539.81;5041146;28;20037;-68
2021/01/23 02:43:57;;;;;;;20.70;10.48;;;;;;;0.23;54.63;99543.09;5040972;28;20032;-67
2021/01/23 02:46:22;;;;;;;25.15;9.85;;;;;;;0.25;54.29;99540.47;5022109;28;20111;-68
2021/01/23 02:48:48;;;;;;;26.02;11.82;;;;;;;-0.26;56.11;99543.94;5037505;28;20039;-68
2021/01/23 02:51:27;;;;;;;22.63;9.85;;;;;;;0.07;55.03;99539.06;5041661;28;20036;-68
2021/01/23 02:54:01;;;;;;;28.15;10.70;;;;;;;0.06;55.17;99540.81;5028837;28;20037;-68
2021/01/23 02:56:27;;;;;;;22.65;10.05;;;;;;;-0.03;55.32;99540.13;5024649;28;20044;-68
2021/01/23 02:58:58;;;;;;;30.27;11.50;;;;;;;-0.05;55.61;99540.16;5038371;28;20087;-69
2021/01/23 03:01:24;;;;;;;28.45;11.02;;;;;;;-0.18;56.37;99544.66;5045412;28;20532;-68
2021/01/23 03:03:54;;;;;;;21.23;10.00;;;;;;;-0.01;55.22;99541.81;5037497;28;20487;-68
2021/01/23 03:06:20;;;;;;;24.13;9.43;;;;;;;0.06;55.05;99539.97;5026307;28;20037;-68
2021/01/23 03:08:46;;;;;;;29.42;11.10;;;;;;;0.04;55.11;99540.00;5039132;28;20102;-70
2021/01/23 03:11:11;;;;;;;32.78;11.45;;;;;;;0.07;55.06;99536.50;5025796;28;20060;-69
2021/01/23 03:13:37;;;;;;;20.23;10.32;;;;;;;0.08;55.12;99540.78;5024283;28;20068;-69
2021/01/23 03:16:04;;;;;;;27.92;12.60;;;;;;;0.09;55.52;99536.50;5024997;28;20115;-69
2021/01/23 03:18:29;;;;;;;26.70;11.25;;;;;;;-0.06;56.09;99537.59;5035297;28;20041;-69
2021/01/23 03:20:54;;;;;;;27.05;11.27;;;;;;;0.13;55.17;99538.97;5039046;28;20037;-70
2021/01/23 03:23:20;;;;;;;20.90;11.10;;;;;;;0.16;54.98;99535.50;5039797;28;20029;-70
2021/01/23 03:25:45;;;;;;;24.05;12.18;;;;;;;0.13;54.99;99531.28;5021315;28;20048;-68
2021/01/23 03:28:11;;;;;;;32.22;13.65;;;;;;;0.14;54.95;99537.25;5036892;28;20025;-68
2021/01/23 03:30:36;;;;;;;31.65;12.63;;;;;;;0.03;55.10;99537.44;5034498;28;20033;-68
2021/01/23 03:33:02;;;;;;;34.55;13.35;;;;;;;-0.02;55.43;99527.25;5037053;28;20037;-68
2021/01/23 03:35:28;;;;;;;31.88;12.93;;;;;;;-0.05;55.55;99526.47;5038986;28;20037;-70
2021/01/23 03:37:53;;;;;;;23.65;10.98;;;;;;;-0.01;55.35;99528.97;5037503;28;20034;-69
2021/01/23 03:40:19;;;;;;;27.13;12.57;;;;;;;-0.03;55.95;99530.69;5035881;28;20050;-69
2021/01/23 03:42:44;;;;;;;27.45;12.43;;;;;;;-0.01;55.36;99528.13;5036857;28;20087;-67
2021/01/23 03:45:11;;;;;;;28.85;12.40;;;;;;;-0.13;55.52;99526.59;5025447;28;20041;-67
2021/01/23 03:47:37;;;;;;;27.23;13.23;;;;;;;-0.13;55.36;99517.16;5038489;28;20041;-68
2021/01/23 03:50:07;;;;;;;27.40;13.68;;;;;;;-0.10;55.77;99528.25;5065626;22;20406;-72
2021/01/23 03:52:33;;;;;;;31.73;14.85;;;;;;;-0.10;55.61;99528.25;5051955;28;20025;-72
2021/01/23 03:54:59;;;;;;;33.17;13.48;;;;;;;-0.08;55.53;99536.78;5036344;28;20410;-73
2021/01/23 03:57:24;;;;;;;32.72;13.68;;;;;;;-0.06;55.41;99532.47;5044730;28;20389;-73
2021/01/23 03:59:50;;;;;;;33.20;13.77;;;;;;;-0.10;55.35;99538.53;5037043;28;20052;-71
2021/01/23 04:02:15;;;;;;;25.75;12.75;;;;;;;-0.13;55.43;99540.28;5049620;28;20470;-72
2021/01/23 04:04:41;;;;;;;33.58;14.15;;;;;;;-0.27;56.50;99536.25;5072041;22;20044;-73
2021/01/23 04:07:06;;;;;;;35.03;16.15;;;;;;;-0.07;55.59;99534.19;5073334;28;20032;-73
2021/01/23 04:09:32;;;;;;;27.58;14.40;;;;;;;-0.11;55.80;99529.13;5081375;28;20492;-71
2021/01/23 04:11:57;;;;;;;26.35;13.20;;;;;;;-0.02;55.48;99531.53;5076516;28;20035;-71
2021/01/23 04:14:23;;;;;;;32.00;13.57;;;;;;;-0.02;55.30;99526.41;5074101;28;20032;-71
2021/01/23 04:16:49;;;;;;;29.08;13.50;;;;;;;-0.04;55.05;99525.59;5071709;28;20024;-72
2021/01/23 04:19:16;;;;;;;29.17;14.10;;;;;;;0.09;54.94;99523.66;5073197;28;20033;-71
2021/01/23 04:21:41;;;;;;;35.63;13.85;;;;;;;-0.05;54.95;99521.34;5072816;28;20108;-71
2021/01/23 04:24:08;;;;;;;32.95;15.43;;;;;;;0.04;55.29;99523.72;5065524;28;20048;-71
2021/01/23 04:26:34;;;;;;;34.25;15.00;;;;;;;-0.14;55.74;99512.06;5071705;28;20032;-71
2021/01/23 04:29:00;;;;;;;36.50;15.65;;;;;;;-0.06;55.23;99515.31;5075759;28;20043;-71
2021/01/23 04:31:25;;;;;;;36.60;13.82;;;;;;;-0.04;55.34;99517.88;5071844;28;20040;-71
2021/01/23 04:33:51;;;;;;;34.45;14.40;;;;;;;-0.02;55.16;99514.41;5071533;28;20033;-71
2021/01/23 04:36:16;;;;;;;38.38;14.98;;;;;;;-0.09;55.20;99511.97;5074005;28;20048;-71
2021/01/23 04:38:42;;;;;;;28.73;13.95;;;;;;;-0.12;55.47;99505.19;5062580;28;20036;-72
2021/01/23 04:41:07;;;;;;;34.05;15.02;;;;;;;-0.17;55.50;99507.84;5069951;28;20040;-71
2021/01/23 04:43:33;;;;;;;33.85;14.10;;;;;;;-0.14;55.14;99506.94;5071532;28;20032;-71
2021/01/23 04:45:59;;;;;;;33.65;14.80;;;;;;;-0.18;55.34;99506.13;5078054;28;20078;-71
2021/01/23 04:48:24;;;;;;;31.33;13.95;;;;;;;-0.24;55.45;99490.81;5077887;28;20040;-71
2021/01/23 04:50:50;;;;;;;34.95;15.40;;;;;;;-0.21;55.37;99495.91;5069878;28;20041;-73
2021/01/23 04:53:16;;;;;;;33.38;15.40;;;;;;;-0.20;55.36;99492.47;5077338;28;20036;-72
2021/01/23 04:55:44;;;;;;;34.08;13.55;;;;;;;-0.17;55.40;99489.00;5066732;28;20394;-72
2021/01/23 04:58:10;;;;;;;34.60;15.38;;;;;;;-0.14;55.50;99491.53;5070427;28;20116;-71
2021/01/23 05:00:36;;;;;;;25.60;13.40;;;;;;;-0.04;54.95;99485.31;5073405;28;20046;-71
2021/01/23 05:03:04;;;;;;;35.95;13.75;;;;;;;-0.13;55.29;99483.75;5070352;28;20032;-72
2021/01/23 05:05:31;;;;;;;35.40;15.85;;;;;;;-0.10;55.38;99479.44;5071852;28;20100;-71
2021/01/23 05:08:10;;;;;;;30.50;15.30;;;;;;;-0.04;54.99;99479.34;5070968;28;20077;-71
2021/01/23 05:10:36;;;;;;;40.97;14.68;;;;;;;-0.05;54.90;99480.22;5073052;28;20032;-71
2021/01/23 05:13:12;;;;;;;32.33;15.25;;;;;;;-0.15;55.38;99476.97;5053289;28;20086;-72
2021/01/23 05:15:38;;;;;;;36.20;13.95;;;;;;;-0.07;55.31;99476.84;5077515;28;20028;-72
2021/01/23 05:18:08;;;;;;;33.50;15.57;;;;;;;-0.15;55.47;99467.56;5070353;28;20024;-72
2021/01/23 05:20:41;;;;;;;32.65;14.82;;;;;;;-0.04;55.15;99472.47;5054374;28;20024;-72
2021/01/23 05:23:10;;;;;;;35.22;14.82;;;;;;;-0.16;55.18;99463.28;5073222;28;20040;-71
2021/01/23 05:25:37;;;;;;;31.75;14.35;;;;;;;-0.16;55.36;99462.44;5073005;28;20040;-71
2021/01/23 05:28:05;;;;;;;36.90;14.60;;;;;;;-0.33;55.93;99462.75;5081634;28;20081;-71
2021/01/23 05:30:43;;;;;;;33.30;14.70;;;;;;;-0.25;55.38;99458.31;5062914;28;20029;-72
2021/01/23 05:33:12;;;;;;;48.88;16.52;;;;;;;-0.30;55.36;99460.13;5086536;28;20037;-72
2021/01/23 05:35:39;;;;;;;36.83;16.45;;;;;;;-0.47;56.04;99462.16;5086113;28;20032;-72
2021/01/23 05:38:31;;;;;;;31.60;16.33;;;;;;;-0.58;56.47;99459.75;5089800;28;20161;-72
2021/01/23 05:41:08;;;;;;;39.60;16.40;;;;;;;-0.39;55.62;99460.31;5081223;28;20113;-72
2021/01/23 05:43:35;;;;;;;45.53;16.27;;;;;;;-0.59;56.11;99464.03;5071328;28;20291;-72
2021/01/23 05:46:07;;;;;;;33.58;14.52;;;;;;;-0.33;55.49;99464.47;5067355;28;20024;-71
2021/01/23 05:48:39;;;;;;;26.83;12.57;;;;;;;-0.53;55.95;99463.09;5066929;28;20680;-72
2021/01/23 05:51:05;;;;;;;33.33;15.38;;;;;;;-0.39;55.28;99456.00;5072694;28;20478;-71
2021/01/23 05:53:30;;;;;;;40.90;17.17;;;;;;;-0.48;55.62;99453.59;5074494;28;20047;-72
2021/01/23 05:55:59;;;;;;;32.58;14.13;;;;;;;-0.40;55.34;99453.47;5079258;28;20055;-73
2021/01/23 05:58:29;;;;;;;34.03;14.88;;;;;;;-0.40;55.17;99450.88;5070166;28;20028;-72
2021/01/23 06:00:56;;;;;;;35.97;15.95;;;;;;;-0.38;55.52;99446.56;5078986;28;20036;-72
2021/01/23 06:03:23;;;;;;;40.25;16.38;;;;;;;-0.43;55.47;99440.69;5078120;28;20102;-72
2021/01/23 06:05:58;;;;;;;39.53;15.93;;;;;;;-0.38;55.35;99437.16;5069123;28;20382;-72
2021/01/23 06:08:42;;;;;;;33.75;17.25;;;;;;;-0.26;54.86;99442.94;5065321;28;20025;-72
2021/01/23 06:11:20;;;;;;;35.50;16.67;;;;;;;-0.23;55.12;99451.44;5067865;28;20069;-72
2021/01/23 06:13:50;;;;;;;40.22;16.13;;;;;;;-0.25;55.44;99445.47;5061143;28;20029;-72
2021/01/23 06:16:34;;;;;;;38.70;15.38;;;;;;;-0.21;55.16;99443.72;5072844;28;20032;-72
2021/01/23 06:19:02;;;;;;;36.08;16.77;;;;;;;-0.20;54.76;99435.97;5067113;28;20040;-71
2021/01/23 06:21:43;;;;;;;33.45;15.73;;;;;;;-0.13;54.82;99437.53;5067077;28;20029;-72
2021/01/23 06:24:19;;;;;;;46.10;18.80;;;;;;;-0.18;54.72;99433.38;5046484;28;20087;-71
2021/01/23 06:26:53;;;;;;;36.60;17.02;;;;;;;-0.19;54.75;99439.38;5059055;28;20127;-72
2021/01/23 06:29:34;;;;;;;37.17;16.70;;;;;;;-0.21;54.83;99443.72;5073891;28;20040;-72
2021/01/23 06:32:12;;;;;;;35.08;15.65;;;;;;;-0.23;55.15;99436.03;5067816;28;20098;-72
2021/01/23 06:34:57;;;;;;;42.60;18.10;;;;;;;-0.23;55.11;99436.03;5061549;28;20029;-72
2021/01/23 06:37:33;;;;;;;40.95;15.50;;;;;;;-0.21;55.16;99439.41;5056792;28;20066;-72
2021/01/23 06:40:02;;;;;;;35.13;17.15;;;;;;;-0.19;55.09;99444.50;5067757;28;20043;-72
2021/01/23 06:42:27;;;;;;;33.42;16.23;;;;;;;-0.16;54.88;99440.16;5062598;28;20498;-72
2021/01/23 06:44:53;;;;;;;37.35;17.52;;;;;;;-0.31;55.29;99437.03;5079278;28;20119;-72
2021/01/23 06:47:18;;;;;;;33.05;16.35;;;;;;;-0.09;55.04;99437.50;5071169;28;20036;-72
2021/01/23 06:49:44;;;;;;;37.20;16.77;;;;;;;-0.02;54.72;99441.63;5072158;28;20048;-72
2021/01/23 06:52:10;;;;;;;43.15;16.45;;;;;;;-0.05;54.97;99441.72;5058720;28;20037;-72
2021/01/23 06:54:37;;;;;;;41.15;15.38;;;;;;;-0.04;54.94;99438.25;5072537;28;20086;-72
2021/01/23 06:57:04;;;;;;;40.45;15.77;;;;;;;0.02;54.68;99441.53;5050512;28;20036;-72
2021/01/23 06:59:32;;;;;;;37.45;16.13;;;;;;;0.00;54.72;99438.16;5071106;28;20033;-72
2021/01/23 07:01:59;;;;;;;41.92;14.80;;;;;;;0.04;54.57;99444.09;5072959;28;20028;-72
2021/01/23 07:04:26;;;;;;;33.58;15.02;;;;;;;0.12;54.52;99436.22;5074144;28;20060;-72
2021/01/23 07:06:54;;;;;;;36.45;16.30;;;;;;;0.18;54.43;99436.94;5080283;28;20064;-72
2021/01/23 07:09:20;;;;;;;34.00;14.85;;;;;;;0.15;54.57;99436.19;5075948;28;20044;-72
2021/01/23 07:11:46;;;;;;;35.83;14.88;;;;;;;0.16;54.77;99436.13;5059248;28;20033;-72
2021/01/23 07:14:11;;;;;;;38.22;15.07;;;;;;;0.21;54.60;99436.03;5075713;28;20032;-72
2021/01/23 07:16:39;;;;;;;33.80;14.85;;;;;;;0.20;54.58;99442.91;5076998;28;20028;-72
2021/01/23 07:19:06;;;;;;;27.25;14.13;;;;;;;0.40;54.33;99444.22;5073823;28;20043;-72
2021/01/23 07:21:39;;;;;;;33.05;14.55;;;;;;;0.43;54.28;99442.41;5076089;28;20036;-72
2021/01/23 07:24:07;;;;;;;36.83;15.00;;;;;;;0.33;54.57;99440.09;5066996;28;20039;-72
2021/01/23 07:26:33;;;;;;;31.95;14.10;;;;;;;0.40;54.06;99436.50;5072595;28;20109;-72
2021/01/23 07:28:59;;;;;;;29.10;13.68;;;;;;;0.42;54.21;99438.16;5073055;28;20036;-71
2021/01/23 07:31:27;;;;;;;32.80;13.98;;;;;;;0.46;54.28;99431.25;5077808;28;20089;-72
2021/01/23 07:33:54;;;;;;;29.70;13.65;;;;;;;0.56;53.59;99435.31;5052066;28;20374;-72
2021/01/23 07:36:37;;;;;;;34.15;13.77;;;;;;;0.40;54.08;99431.38;5078845;28;20123;-72
2021/01/23 07:39:18;;;;;;;27.65;12.73;;;;;;;0.55;53.65;99435.34;5077305;28;20437;-71
2021/01/23 07:41:49;;;;;;;32.00;12.63;;;;;;;0.54;53.71;99433.66;5075732;28;20062;-72
2021/01/23 07:44:15;;;;;;;23.67;9.85;;;;;;;0.57;53.60;99433.56;5067515;28;20589;-72
2021/01/23 07:46:46;;;;;;;28.73;13.45;;;;;;;0.73;53.43;99418.69;5071594;28;20041;-72
2021/01/23 07:49:25;;;;;;;31.58;13.90;;;;;;;0.73;53.37;99428.97;5074846;28;20062;-72
2021/01/23 07:51:51;;;;;;;33.83;14.18;;;;;;;0.69;53.58;99423.03;5068136;28;20041;-72
2021/01/23 07:54:17;;;;;;;37.15;14.80;;;;;;;0.75;53.16;99428.03;5071162;28;20035;-72
2021/01/23 07:56:54;;;;;;;34.85;13.50;;;;;;;0.81;53.28;99425.31;5075719;28;20036;-72
2021/01/23 07:59:21;;;;;;;29.33;13.75;;;;;;;0.69;53.75;99429.00;5074769;28;20474;-72
2021/01/23 08:01:47;;;;;;;29.15;11.95;;;;;;;0.58;53.94;99430.97;5065942;28;20025;-72
2021/01/23 08:04:32;;;;;;;31.45;13.73;;;;;;;0.78;53.21;99437.41;5066476;28;20076;-72
2021/01/23 08:07:27;;;;;;;31.45;13.68;;;;;;;0.43;54.28;99436.44;5056411;28;20050;-72
2021/01/23 08:10:22;;;;;;;24.15;12.50;;;;;;;0.61;53.82;99435.19;5065094;28;20036;-71
2021/01/23 08:12:51;;;;;;;31.60;12.07;;;;;;;0.19;55.10;99433.50;5056946;28;20042;-71
2021/01/23 08:15:26;;;;;;;35.97;13.43;;;;;;;0.19;55.33;99428.38;5073782;28;20051;-71
2021/01/23 08:17:52;;;;;;;34.70;15.18;;;;;;;0.71;53.98;99428.16;5082085;28;20031;-73
2021/01/23 08:20:35;;;;;;;27.63;11.93;;;;;;;0.69;54.21;99421.28;5079387;28;20059;-71
2021/01/23 08:23:07;;;;;;;32.95;13.32;;;;;;;0.35;55.36;99416.06;5082477;28;20031;-73
2021/01/23 08:25:35;;;;;;;30.67;14.47;;;;;;;0.36;55.84;99429.75;5075724;28;20040;-72
2021/01/23 08:28:02;;;;;;;26.92;12.02;;;;;;;0.78;54.50;99429.69;5050533;28;20286;-71
2021/01/23 08:30:27;;;;;;;32.50;12.60;;;;;;;0.83;54.56;99431.25;5075848;28;20085;-71
2021/01/23 08:32:54;;;;;;;26.55;12.02;;;;;;;0.75;54.89;99433.19;5061102;28;20055;-71
2021/01/23 08:35:21;;;;;;;29.77;14.13;;;;;;;0.81;54.98;99432.19;5067025;28;20147;-71
2021/01/23 08:37:50;;;;;;;25.88;13.55;;;;;;;0.39;56.00;99427.09;5070484;28;20610;-71
2021/01/23 08:40:23;;;;;;;30.30;13.07;;;;;;;0.69;55.84;99423.03;5069808;28;20032;-71
2021/01/23 08:42:49;;;;;;;34.25;12.48;;;;;;;1.13;54.59;99428.88;5068233;28;20064;-72
2021/01/23 08:45:17;;;;;;;24.70;11.52;;;;;;;1.18;54.36;99415.91;5066601;28;20028;-72
2021/01/23 08:47:42;;;;;;;28.75;13.23;;;;;;;1.14;54.22;99415.13;5072044;28;20152;-72
2021/01/23 08:50:09;;;;;;;26.73;12.05;;;;;;;1.12;54.71;99416.88;5072470;28;20111;-72
2021/01/23 08:52:35;;;;;;;33.05;13.35;;;;;;;1.10;54.85;99409.22;5065887;28;20029;-72
2021/01/23 08:55:00;;;;;;;25.55;12.38;;;;;;;1.24;54.30;99401.16;5067685;28;20481;-71
2021/01/23 08:57:26;;;;;;;29.23;12.18;;;;;;;1.42;54.16;99415.31;5059750;28;20106;-72
2021/01/23 08:59:53;;;;;;;24.08;12.32;;;;;;;1.18;54.67;99405.59;5070355;28;20045;-72
2021/01/23 09:02:18;;;;;;;24.48;12.82;;;;;;;0.93;55.38;99405.34;5073408;28;20032;-73
2021/01/23 09:04:44;;;;;;;32.10;13.70;;;;;;;1.06;55.09;99406.72;5055948;28;20087;-71
2021/01/23 09:07:09;;;;;;;36.42;15.07;;;;;;;1.00;55.68;99405.16;5073861;28;20043;-71
2021/01/23 09:09:35;;;;;;;25.75;12.68;;;;;;;1.05;54.93;99411.03;5067076;28;20039;-72
2021/01/23 09:12:01;;;;;;;28.65;12.57;;;;;;;1.03;55.49;99409.38;5070205;28;20478;-71
2021/01/23 09:14:26;;;;;;;25.48;12.70;;;;;;;1.20;55.28;99408.97;5074177;28;20031;-71
2021/01/23 09:16:53;;;;;;;28.27;11.65;;;;;;;1.36;55.23;99405.13;5075232;28;20047;-71
2021/01/23 09:19:20;;;;;;;20.17;10.98;;;;;;;1.42;55.25;99406.75;5070016;28;20052;-71
2021/01/23 09:21:45;;;;;;;24.52;10.98;;;;;;;1.54;54.37;99403.00;5067391;28;20310;-71
2021/01/23 09:24:11;;;;;;;28.17;12.13;;;;;;;0.91;56.44;99402.81;5068451;28;20052;-71
2021/01/23 09:26:36;;;;;;;22.77;11.93;;;;;;;1.27;55.91;99395.91;5070103;28;20020;-71
2021/01/23 09:29:02;;;;;;;25.65;12.95;;;;;;;1.36;55.19;99407.72;5071347;28;20107;-71
2021/01/23 09:31:28;;;;;;;22.42;12.80;;;;;;;1.60;55.45;99397.69;5054976;28;20032;-71
2021/01/23 09:33:53;;;;;;;25.42;11.95;;;;;;;2.02;54.27;99398.25;5068444;28;20128;-72
2021/01/23 09:36:20;;;;;;;21.42;12.07;;;;;;;2.13;53.54;99401.38;5076565;28;20040;-72
2021/01/23 09:38:45;;;;;;;18.88;12.55;;;;;;;1.87;54.58;99409.81;5074261;28;20029;-72
2021/01/23 09:41:11;;;;;;;21.55;10.85;;;;;;;2.08;53.98;99399.81;5072232;28;20042;-72
2021/01/23 09:43:37;;;;;;;22.30;11.43;;;;;;;1.93;54.05;99398.53;5065786;28;20067;-72
2021/01/23 09:46:03;;;;;;;19.10;10.43;;;;;;;1.76;54.76;99398.97;5075963;28;20444;-72
2021/01/23 09:48:28;;;;;;;23.23;11.60;;;;;;;1.35;55.98;99402.59;5070514;28;20076;-71
2021/01/23 09:50:54;;;;;;;25.60;12.52;;;;;;;1.61;55.00;99401.94;5067472;28;20032;-72
2021/01/23 09:53:19;;;;;;;23.67;11.05;;;;;;;2.18;53.82;99398.66;5071394;28;20036;-71
2021/01/23 09:55:45;;;;;;;19.83;10.18;;;;;;;1.89;54.67;99397.75;5069004;28;20032;-72
2021/01/23 09:58:10;;;;;;;23.90;12.65;;;;;;;1.50;55.99;99403.06;5066350;28;20032;-73
2021/01/23 10:00:36;;;;;;;24.35;11.70;;;;;;;1.61;55.24;99400.22;5064387;28;20028;-71
2021/01/23 10:03:01;;;;;;;18.95;10.95;;;;;;;1.77;55.18;99403.22;5068713;28;20115;-73
2021/01/23 10:05:27;;;;;;;25.30;12.00;;;;;;;1.66;55.54;99403.53;5068086;28;20055;-73
2021/01/23 10:07:52;;;;;;;24.52;11.63;;;;;;;1.72;55.41;99405.94;5069215;28;20039;-72
2021/01/23 10:10:18;;;;;;;26.33;13.18;;;;;;;1.43;56.06;99401.53;5062918;28;20111;-72
2021/01/23 10:12:43;;;;;;;23.38;11.98;;;;;;;1.61;56.06;99404.53;5069548;28;20471;-72
2021/01/23 10:15:09;;;;;;;23.60;12.55;;;;;;;2.05;54.47;99399.91;5089303;28;20036;-73
2021/01/23 10:17:35;;;;;;;26.65;14.45;;;;;;;1.78;55.51;99396.38;5067210;28;20036;-73
2021/01/23 10:20:01;;;;;;;27.90;12.85;;;;;;;2.27;53.72;99390.66;5074793;28;20059;-72
2021/01/23 10:22:26;;;;;;;20.85;12.57;;;;;;;2.06;54.25;99396.41;5065477;28;20041;-73
2021/01/23 10:24:52;;;;;;;18.85;11.38;;;;;;;2.17;54.17;99399.53;5075636;28;20035;-72
2021/01/23 10:27:18;;;;;;;23.40;11.18;;;;;;;2.11;54.10;99392.00;5076655;28;20036;-73
2021/01/23 10:29:43;;;;;;;27.23;12.10;;;;;;;2.27;54.31;99395.81;5073477;28;20052;-73
2021/01/23 10:32:09;;;;;;;19.23;10.88;;;;;;;2.52;53.38;99395.09;5069254;28;20039;-73
2021/01/23 10:34:35;;;;;;;23.27;11.02;;;;;;;2.00;54.41;99394.88;5059104;28;20041;-73
2021/01/23 10:37:01;;;;;;;24.13;11.15;;;;;;;2.25;54.07;99395.00;5070230;28;20032;-73
2021/01/23 10:39:26;;;;;;;18.77;10.60;;;;;;;2.26;54.04;99388.13;5072750;28;20038;-73
2021/01/23 10:41:52;;;;;;;18.50;9.75;;;;;;;2.38;53.85;99394.63;5065859;28;20424;-73
2021/01/23 10:44:17;;;;;;;21.38;10.45;;;;;;;2.49;53.54;99387.44;5074463;28;20024;-73
2021/01/23 10:46:43;;;;;;;17.83;9.93;;;;;;;2.69;53.51;99398.00;5072704;28;20081;-72
2021/01/23 10:49:08;;;;;;;23.27;9.93;;;;;;;2.49;54.39;99390.03;5073113;28;20031;-72
2021/01/23 10:51:34;;;;;;;21.85;10.25;;;;;;;2.37;54.49;99391.22;5070875;28;20649;-71
2021/01/23 10:53:59;;;;;;;14.23;9.18;;;;;;;2.56;53.59;99391.53;5069488;28;20096;-72
2021/01/23 10:56:25;;;;;;;20.77;10.57;;;;;;;3.14;52.46;99389.66;5064336;28;20123;-74
2021/01/23 10:58:50;;;;;;;17.05;8.93;;;;;;;2.91;53.02;99381.81;5069649;28;20031;-74
2021/01/23 11:01:16;;;;;;;16.75;9.15;;;;;;;3.06;52.28;99371.00;5065898;28;20905;-71
2021/01/23 11:03:41;;;;;;;15.00;9.05;;;;;;;2.40;54.54;99374.81;5056843;28;20097;-73
2021/01/23 11:06:07;;;;;;;15.75;9.35;;;;;;;2.80;53.39;99373.56;5076113;28;20066;-73
2021/01/23 11:08:33;;;;;;;15.68;8.02;;;;;;;2.73;53.66;99378.97;5073226;28;20025;-73
2021/01/23 11:10:58;;;;;;;17.98;8.40;;;;;;;2.26;55.32;99377.81;5073590;28;20377;-73
2021/01/23 11:13:24;;;;;;;14.80;8.35;;;;;;;3.14;53.40;99368.19;5066412;28;20020;-71
2021/01/23 11:15:49;;;;;;;18.50;8.88;;;;;;;3.11;53.04;99374.28;5071439;28;20371;-74
2021/01/23 11:18:16;;;;;;;17.60;8.73;;;;;;;2.71;54.20;99370.41;5072217;28;20486;-73
2021/01/23 11:20:41;;;;;;;17.58;8.80;;;;;;;2.65;53.95;99370.59;5073041;28;20041;-73
2021/01/23 11:23:07;;;;;;;20.27;9.05;;;;;;;1.96;55.89;99380.38;5074313;28;20031;-71
2021/01/23 11:25:32;;;;;;;15.15;8.32;;;;;;;1.47;57.62;99374.84;5073647;28;20484;-71
2021/01/23 11:27:57;;;;;;;16.55;8.20;;;;;;;2.73;53.99;99371.22;5070935;28;20024;-71
2021/01/23 11:30:23;;;;;;;14.32;8.38;;;;;;;2.28;55.22;99370.88;5070600;28;20060;-71